Time;durP1;ratioP1;P1;durP2;ratioP2;P2;SDS_P1;SDS_P2;PMS_P1;PMS_P2;Temp;Humidity;BMP_temperature;BMP_pressure;BME280_temperature;BME280_humidity;BME280_pressure;Samples;Min_cycle;Max_cycle;Signal;HPM_P1;HPM_P2
2022/09/13 00:01:09;;;;;;;4.85;0.90;;;;;;;14.66;100.00;100374.44;4971263;28;20456;-86
2022/09/13 00:03:36;;;;;;;2.00;1.00;;;;;;;14.53;100.00;100387.47;4972816;28;20108;-86
2022/09/13 00:06:19;;;;;;;5.97;1.27;;;;;;;14.70;100.00;100383.84;4966360;28;20108;-86
2022/09/13 00:08:46;;;;;;;3.28;1.27;;;;;;;14.36;100.00;100322.63;4966367;28;20062;-87
2022/09/13 00:11:15;;;;;;;2.08;0.90;;;;;;;14.58;100.00;100367.00;4987196;28;20078;-86
2022/09/13 00:13:42;;;;;;;1.95;0.80;;;;;;;14.61;100.00;100358.91;4983494;28;20484;-86
2022/09/13 00:16:14;;;;;;;2.15;0.80;;;;;;;14.82;100.00;100355.91;4969021;28;20101;-86
2022/09/13 00:18:41;;;;;;;2.97;1.00;;;;;;;14.99;100.00;100368.88;4981010;28;20047;-87
2022/09/13 00:21:11;;;;;;;4.13;1.27;;;;;;;15.10;100.00;100367.38;4970928;28;20751;-86
2022/09/13 00:23:43;;;;;;;2.42;1.08;;;;;;;15.10;100.00;100362.97;4966652;28;20141;-86
2022/09/13 00:26:13;;;;;;;3.33;0.95;;;;;;;14.81;100.00;100364.75;4974090;28;20046;-86
2022/09/13 00:28:40;;;;;;;4.72;1.00;;;;;;;14.94;100.00;100370.13;4963473;28;20043;-87
2022/09/13 00:31:09;;;;;;;5.63;1.23;;;;;;;14.81;100.00;100378.78;4985241;28;20042;-87
2022/09/13 00:33:36;;;;;;;4.20;1.10;;;;;;;15.05;100.00;100372.94;4988630;28;20505;-86
2022/09/13 00:36:05;;;;;;;1.63;0.70;;;;;;;15.06;100.00;100348.25;4970705;28;20053;-84
2022/09/13 00:38:37;;;;;;;1.42;0.70;;;;;;;15.00;100.00;100338.13;4975935;28;20062;-86
2022/09/13 00:41:07;;;;;;;1.20;0.70;;;;;;;15.07;100.00;100357.88;4973216;28;20077;-86
2022/09/13 00:44:00;;;;;;;3.47;0.90;;;;;;;14.77;100.00;100368.53;4970489;28;20743;-86
2022/09/13 00:46:50;;;;;;;2.17;0.80;;;;;;;15.04;100.00;100367.78;4972688;28;20047;-86
2022/09/13 00:49:34;;;;;;;1.75;0.90;;;;;;;15.00;100.00;100360.03;4970675;28;20083;-86
2022/09/13 00:52:07;;;;;;;3.20;1.00;;;;;;;15.17;100.00;100361.63;4990463;28;20451;-86
2022/09/13 00:54:47;;;;;;;2.40;0.82;;;;;;;15.05;100.00;100356.25;4986780;28;20354;-86
2022/09/13 00:57:16;;;;;;;2.67;0.82;;;;;;;15.23;100.00;100362.16;4973074;28;20058;-85
2022/09/13 01:00:11;;;;;;;2.67;0.70;;;;;;;15.33;100.00;100356.25;4972950;28;20054;-86
2022/09/13 01:02:48;;;;;;;2.28;0.90;;;;;;;15.09;100.00;100353.34;4975878;28;20042;-86
2022/09/13 01:05:19;;;;;;;2.53;0.80;;;;;;;15.23;100.00;100349.84;4969197;28;21369;-85
2022/09/13 01:07:46;;;;;;;1.75;0.90;;;;;;;15.16;100.00;100351.19;4989481;28;20092;-86
2022/09/13 01:10:13;;;;;;;3.70;0.88;;;;;;;15.25;100.00;100362.94;4978429;28;20440;-86
2022/09/13 01:12:50;;;;;;;2.28;0.90;;;;;;;15.25;100.00;100362.94;4973092;28;20058;-86
2022/09/13 01:15:16;;;;;;;1.98;0.90;;;;;;;15.16;100.00;100362.56;4977670;28;20100;-86
2022/09/13 01:17:44;;;;;;;5.57;1.10;;;;;;;15.17;100.00;100361.63;4965332;28;20054;-86
2022/09/13 01:20:12;;;;;;;2.35;0.75;;;;;;;15.24;100.00;100348.88;4977407;28;20097;-86
2022/09/13 01:22:54;;;;;;;1.25;0.70;;;;;;;15.40;100.00;100356.69;4975992;28;20054;-86
2022/09/13 01:25:37;;;;;;;1.23;0.70;;;;;;;15.37;100.00;100354.25;4977172;28;20448;-86
2022/09/13 01:28:32;;;;;;;2.88;0.77;;;;;;;15.07;100.00;100355.25;4969254;28;20093;-86
2022/09/13 01:31:13;;;;;;;2.78;0.90;;;;;;;15.15;100.00;100357.38;4978318;28;20043;-85
2022/09/13 01:34:22;;;;;;;1.63;0.70;;;;;;;15.07;100.00;100360.50;4977807;28;20477;-86
2022/09/13 01:37:01;;;;;;;3.47;0.75;;;;;;;15.29;100.00;100367.06;4994980;28;20117;-86
2022/09/13 01:39:46;;;;;;;1.63;0.82;;;;;;;15.38;100.00;100372.59;4972035;28;20101;-86
2022/09/13 01:42:50;;;;;;;1.75;0.70;;;;;;;15.36;100.00;100363.09;4976919;28;20133;-85
2022/09/13 01:45:35;;;;;;;0.90;0.80;;;;;;;15.26;100.00;100370.72;4980173;28;20046;-86
2022/09/13 01:48:38;;;;;;;2.10;1.00;;;;;;;15.16;100.00;100359.09;4974943;28;20381;-86
2022/09/13 01:51:31;;;;;;;1.30;0.80;;;;;;;15.21;100.00;100385.16;4967375;28;20050;-86
2022/09/13 01:54:14;;;;;;;1.95;0.82;;;;;;;15.15;100.00;100378.47;4981987;28;20050;-86
2022/09/13 01:56:53;;;;;;;3.65;0.93;;;;;;;15.08;100.00;100385.91;4977232;28;20101;-86
2022/09/13 01:59:35;;;;;;;2.35;0.73;;;;;;;15.17;100.00;100374.81;4993519;28;20042;-86
2022/09/13 02:02:17;;;;;;;4.00;0.80;;;;;;;15.03;100.00;100389.78;4976546;28;20042;-86
2022/09/13 02:04:53;;;;;;;1.23;0.70;;;;;;;15.12;100.00;100397.13;4976523;28;20153;-87
2022/09/13 02:07:41;;;;;;;1.63;0.70;;;;;;;15.09;100.00;100399.97;4989905;28;20042;-86
2022/09/13 02:10:14;;;;;;;2.25;0.73;;;;;;;15.13;100.00;100389.13;4973455;28;20130;-86
2022/09/13 02:12:42;;;;;;;;;;;;;;;15.49;100.00;100394.81;4973407;28;20466;-86
2022/09/13 02:15:27;;;;;;;0.70;0.60;;;;;;;15.48;100.00;100401.91;4970510;28;19988;-86
2022/09/13 02:18:05;;;;;;;0.75;0.65;;;;;;;15.34;100.00;100388.75;4967801;28;20050;-86
2022/09/13 02:20:40;;;;;;;0.70;0.70;;;;;;;15.49;100.00;100400.97;4988010;28;20047;-86
2022/09/13 02:23:14;;;;;;;1.67;0.70;;;;;;;15.15;100.00;100386.41;4994303;28;20047;-86
2022/09/13 02:25:43;;;;;;;0.80;0.70;;;;;;;14.99;100.00;100389.13;4976359;28;20046;-86
2022/09/13 02:28:13;;;;;;;0.95;0.70;;;;;;;15.00;100.00;100394.31;4969811;28;20047;-86
2022/09/13 02:30:45;;;;;;;2.67;0.85;;;;;;;15.03;100.00;100400.34;4993578;28;20049;-86
2022/09/13 02:33:22;;;;;;;2.15;0.80;;;;;;;15.21;100.00;100403.63;4989433;28;20481;-86
2022/09/13 02:35:58;;;;;;;0.93;0.68;;;;;;;14.87;100.00;100401.25;4969481;28;20129;-86
2022/09/13 02:38:58;;;;;;;1.75;0.75;;;;;;;14.99;100.00;100410.22;4969465;28;20081;-86
2022/09/13 02:41:42;;;;;;;1.02;0.80;;;;;;;14.66;100.00;100410.47;4976519;28;20455;-87
2022/09/13 02:44:23;;;;;;;1.70;0.70;;;;;;;14.78;100.00;100389.53;4977101;28;20105;-85
2022/09/13 02:46:58;;;;;;;1.85;0.80;;;;;;;14.84;100.00;100408.50;4974267;28;20054;-86
2022/09/13 02:49:50;;;;;;;2.08;0.77;;;;;;;14.88;100.00;100410.03;4969496;28;20104;-86
2022/09/13 02:52:41;;;;;;;1.38;0.70;;;;;;;14.84;100.00;100414.66;4991394;28;20489;-86
2022/09/13 02:55:34;;;;;;;3.80;0.80;;;;;;;14.92;100.00;100415.00;4993879;28;20552;-86
2022/09/13 02:58:21;;;;;;;1.73;0.63;;;;;;;14.72;100.00;100404.84;4939888;28;20065;-84
2022/09/13 03:00:54;;;;;;;1.05;0.80;;;;;;;14.68;100.00;100427.03;4990502;28;20057;-86
2022/09/13 03:03:22;;;;;;;1.60;0.70;;;;;;;14.69;100.00;100420.84;4973392;28;20160;-87
2022/09/13 03:05:49;;;;;;;3.22;0.80;;;;;;;14.44;100.00;100409.91;4990127;28;20051;-86
2022/09/13 03:08:17;;;;;;;1.20;0.70;;;;;;;14.52;100.00;100409.50;4973113;28;20116;-86
2022/09/13 03:10:44;;;;;;;7.53;1.08;;;;;;;14.55;100.00;100417.19;4975640;28;20522;-86
2022/09/13 03:13:20;;;;;;;0.70;0.70;;;;;;;14.52;100.00;100427.94;4972388;28;20050;-86
2022/09/13 03:16:04;;;;;;;1.27;0.70;;;;;;;14.59;100.00;100423.19;4986662;28;20093;-86
2022/09/13 03:18:46;;;;;;;1.98;0.88;;;;;;;14.59;100.00;100420.56;4973739;28;20489;-86
2022/09/13 03:21:25;;;;;;;1.08;0.80;;;;;;;14.61;100.00;100431.84;4969383;28;20056;-82
2022/09/13 03:23:52;;;;;;;2.47;0.80;;;;;;;14.36;100.00;100429.75;4975861;28;20108;-85
2022/09/13 03:26:35;;;;;;;3.30;0.80;;;;;;;14.40;100.00;100420.75;4992787;28;20058;-86
2022/09/13 03:29:02;;;;;;;1.65;0.70;;;;;;;14.76;100.00;100430.91;4957994;28;20055;-85
2022/09/13 03:31:47;;;;;;;1.38;0.80;;;;;;;14.64;100.00;100420.25;4975862;28;20539;-86
2022/09/13 03:34:33;;;;;;;1.25;0.75;;;;;;;14.75;100.00;100431.00;4964520;28;20046;-86
2022/09/13 03:37:38;;;;;;;1.40;0.70;;;;;;;14.58;100.00;100424.94;4966832;28;20050;-85
2022/09/13 03:40:12;;;;;;;0.90;0.65;;;;;;;14.51;100.00;100426.22;4972212;28;20053;-86
2022/09/13 03:42:46;;;;;;;0.68;0.68;;;;;;;14.49;100.00;100425.47;4989055;28;20050;-87
2022/09/13 03:45:17;;;;;;;0.75;0.70;;;;;;;14.41;100.00;100425.06;4962280;28;20046;-86
2022/09/13 03:47:47;;;;;;;1.45;0.80;;;;;;;14.54;100.00;100418.16;4977245;28;20060;-85
2022/09/13 03:50:19;;;;;;;2.13;0.80;;;;;;;14.43;100.00;100429.31;4992786;28;20050;-86
2022/09/13 03:52:50;;;;;;;2.28;0.80;;;;;;;14.37;100.00;100403.31;4991669;28;20475;-85
2022/09/13 03:55:21;;;;;;;3.45;0.80;;;;;;;14.40;100.00;100420.75;4964334;28;20089;-85
2022/09/13 03:57:47;;;;;;;3.60;0.80;;;;;;;14.60;100.00;100406.41;4964575;28;20058;-86
2022/09/13 04:00:16;;;;;;;1.45;0.90;;;;;;;14.42;100.00;100419.72;4992448;28;20055;-86
2022/09/13 04:02:43;;;;;;;1.85;0.80;;;;;;;14.29;100.00;100412.59;4975739;28;20061;-86
2022/09/13 04:05:10;;;;;;;2.47;0.90;;;;;;;14.44;100.00;100414.34;4975623;28;20047;-85
2022/09/13 04:07:37;;;;;;;1.80;0.80;;;;;;;14.37;100.00;100418.28;4968128;28;20772;-86
2022/09/13 04:10:04;;;;;;;1.33;0.80;;;;;;;14.39;100.00;100419.88;4969723;28;20096;-86
2022/09/13 04:12:31;;;;;;;1.75;0.70;;;;;;;14.43;100.00;100421.41;4984142;28;20050;-86
2022/09/13 04:14:57;;;;;;;1.90;0.70;;;;;;;14.17;100.00;100404.50;4992754;28;20061;-86
2022/09/13 04:17:24;;;;;;;1.23;0.70;;;;;;;14.26;100.00;100391.75;4974734;28;20043;-86
2022/09/13 04:19:51;;;;;;;1.95;0.80;;;;;;;14.37;100.00;100408.59;4973006;28;20081;-87
2022/09/13 04:22:18;;;;;;;4.10;0.90;;;;;;;14.31;100.00;100410.75;4979472;28;20489;-86
2022/09/13 04:24:44;;;;;;;1.38;1.00;;;;;;;14.51;100.00;100422.75;4996316;28;20069;-86
2022/09/13 04:27:12;;;;;;;2.70;0.75;;;;;;;14.14;100.00;100395.94;4962438;28;20054;-86
2022/09/13 04:29:38;;;;;;;0.88;0.60;;;;;;;14.30;100.00;100398.53;4970272;28;20437;-85
2022/09/13 04:32:05;;;;;;;5.03;0.95;;;;;;;14.26;100.00;100397.00;4982555;28;20051;-86
2022/09/13 04:34:32;;;;;;;1.45;0.70;;;;;;;14.37;100.00;100405.13;4978481;28;20050;-86
2022/09/13 04:36:59;;;;;;;2.70;1.00;;;;;;;14.52;100.00;100406.00;4977959;28;20073;-85
2022/09/13 04:39:25;;;;;;;1.02;0.70;;;;;;;13.98;100.00;100388.91;4979264;28;20432;-86
2022/09/13 04:41:54;;;;;;;1.10;0.80;;;;;;;14.07;100.00;100405.13;4979193;28;20097;-86
2022/09/13 04:44:21;;;;;;;3.40;0.80;;;;;;;14.16;100.00;100388.78;4978885;28;20050;-86
2022/09/13 04:46:49;;;;;;;3.67;0.85;;;;;;;14.21;100.00;100390.19;4979553;28;20058;-86
2022/09/13 04:49:17;;;;;;;2.10;0.80;;;;;;;14.05;100.00;100384.97;4995660;28;20054;-86
2022/09/13 04:51:44;;;;;;;2.05;0.90;;;;;;;14.17;100.00;100417.66;4978919;28;20120;-86
2022/09/13 04:54:11;;;;;;;2.80;0.80;;;;;;;14.13;100.00;100403.00;4991632;28;20054;-84
2022/09/13 04:56:42;;;;;;;2.85;0.77;;;;;;;14.22;100.00;100410.34;4978825;28;20508;-86
2022/09/13 04:59:10;;;;;;;1.77;0.80;;;;;;;14.02;100.00;100405.38;4968386;28;20105;-85
2022/09/13 05:01:37;;;;;;;1.52;0.73;;;;;;;14.14;100.00;100390.66;4975809;28;20047;-86
2022/09/13 05:04:05;;;;;;;0.85;0.70;;;;;;;14.20;100.00;100393.78;4974129;28;20133;-86
2022/09/13 05:06:32;;;;;;;2.63;0.80;;;;;;;14.00;100.00;100402.81;4975499;28;20049;-86
2022/09/13 05:08:59;;;;;;;1.42;0.70;;;;;;;14.04;100.00;100400.84;4984541;28;20445;-86
2022/09/13 05:11:27;;;;;;;0.60;0.60;;;;;;;14.09;100.00;100404.06;4989650;28;20047;-87
2022/09/13 05:13:57;;;;;;;2.58;0.70;;;;;;;14.17;100.00;100393.97;4975898;28;20051;-86
2022/09/13 05:16:29;;;;;;;1.25;0.80;;;;;;;14.23;100.00;100401.50;4972567;28;20508;-86
2022/09/13 05:18:57;;;;;;;1.08;0.70;;;;;;;14.17;100.00;100386.06;4989121;28;20050;-86
2022/09/13 05:21:24;;;;;;;1.42;0.70;;;;;;;14.22;100.00;100398.97;4970634;28;20405;-86
2022/09/13 05:23:52;;;;;;;2.15;0.70;;;;;;;14.13;100.00;100400.34;4973075;28;20062;-86
2022/09/13 05:26:21;;;;;;;1.20;0.70;;;;;;;14.03;100.00;100415.81;4970957;28;20050;-86
2022/09/13 05:28:48;;;;;;;1.33;0.70;;;;;;;13.96;100.00;100409.22;4989417;28;20057;-86
2022/09/13 05:31:24;;;;;;;2.08;0.65;;;;;;;14.03;100.00;100426.34;4981421;28;20058;-86
2022/09/13 05:33:57;;;;;;;0.70;0.70;;;;;;;13.77;100.00;100422.53;4968949;28;20066;-86
2022/09/13 05:36:25;;;;;;;0.70;0.70;;;;;;;14.09;100.00;100419.88;4992252;28;20385;-86
2022/09/13 05:38:53;;;;;;;1.45;0.70;;;;;;;14.06;100.00;100427.97;4970388;28;20046;-86
2022/09/13 05:41:40;;;;;;;2.15;0.80;;;;;;;14.08;100.00;100406.78;4986664;28;20050;-86
2022/09/13 05:44:08;;;;;;;2.05;0.68;;;;;;;14.10;100.00;100397.88;4975588;28;20054;-85
2022/09/13 05:46:40;;;;;;;2.17;0.73;;;;;;;13.64;100.00;100377.66;4977821;28;20419;-85
2022/09/13 05:49:06;;;;;;;1.10;0.70;;;;;;;14.00;100.00;100397.56;4972948;28;20057;-85
2022/09/13 05:51:33;;;;;;;0.63;0.63;;;;;;;13.30;100.00;100339.22;4978950;28;20066;-86
2022/09/13 05:54:00;;;;;;;1.52;0.80;;;;;;;13.87;100.00;100383.41;4980372;28;20051;-85
2022/09/13 05:56:29;;;;;;;3.40;0.80;;;;;;;13.92;100.00;100399.78;4979632;28;20039;-86
2022/09/13 05:58:55;;;;;;;0.63;0.63;;;;;;;13.57;100.00;100351.81;4973842;28;20050;-86
2022/09/13 06:01:25;;;;;;;2.20;0.80;;;;;;;14.15;100.00;100410.81;4968148;28;20066;-88
2022/09/13 06:03:54;;;;;;;1.30;0.70;;;;;;;13.69;100.00;100361.63;4976453;28;20713;-86
2022/09/13 06:06:22;;;;;;;0.80;0.63;;;;;;;13.71;100.00;100382.59;4975971;28;20061;-87
2022/09/13 06:08:54;;;;;;;1.40;0.68;;;;;;;13.77;100.00;100395.41;4986136;28;20058;-90
2022/09/13 06:11:22;;;;;;;2.97;0.80;;;;;;;13.53;100.00;100382.69;4993532;28;20065;-88
2022/09/13 06:13:49;;;;;;;0.85;0.80;;;;;;;14.01;100.00;100454.53;4977371;28;20059;-88
2022/09/13 06:16:16;;;;;;;1.77;0.77;;;;;;;13.97;100.00;100407.41;4985842;28;20057;-88
2022/09/13 06:18:43;;;;;;;4.38;1.10;;;;;;;13.80;100.00;100416.28;4978022;28;20385;-88
2022/09/13 06:21:16;;;;;;;1.73;0.80;;;;;;;14.24;100.00;100441.84;4974473;28;20046;-89
2022/09/13 06:23:45;;;;;;;4.50;0.80;;;;;;;13.99;100.00;100424.00;4976313;28;20117;-87
2022/09/13 06:26:14;;;;;;;1.40;0.80;;;;;;;14.16;100.00;100450.19;4992228;28;20105;-88
2022/09/13 06:28:42;;;;;;;1.73;0.80;;;;;;;14.28;100.00;100460.97;4974927;28;20053;-87
2022/09/13 06:31:11;;;;;;;2.70;0.80;;;;;;;14.27;100.00;100475.06;4978484;28;20047;-88
2022/09/13 06:33:40;;;;;;;1.95;0.70;;;;;;;14.13;100.00;100441.59;4973846;28;20042;-88
2022/09/13 06:36:19;;;;;;;3.28;0.70;;;;;;;14.35;100.00;100457.88;4978012;28;20058;-88
2022/09/13 06:38:50;;;;;;;2.40;0.80;;;;;;;14.28;100.00;100459.16;4972571;28;20108;-88
2022/09/13 06:41:22;;;;;;;2.70;0.75;;;;;;;14.28;100.00;100466.22;4995671;28;20047;-87
2022/09/13 06:43:54;;;;;;;2.72;0.80;;;;;;;14.15;100.00;100443.22;4973727;28;20065;-88
2022/09/13 06:46:21;;;;;;;2.67;0.70;;;;;;;13.87;100.00;100375.53;4978843;28;20498;-87
2022/09/13 06:48:51;;;;;;;1.63;0.80;;;;;;;14.40;100.00;100462.91;4981980;28;20448;-88
2022/09/13 06:51:23;;;;;;;1.20;0.70;;;;;;;14.70;100.00;100467.34;4996299;28;20050;-88
2022/09/13 06:53:52;;;;;;;3.20;0.95;;;;;;;14.47;100.00;100464.22;4976282;28;20066;-87
2022/09/13 06:56:21;;;;;;;1.77;0.90;;;;;;;14.32;100.00;100465.94;4983480;28;20054;-89
2022/09/13 06:58:51;;;;;;;3.00;0.80;;;;;;;14.34;100.00;100469.38;4972129;28;20059;-86
2022/09/13 07:01:21;;;;;;;3.90;1.10;;;;;;;14.18;100.00;100455.38;4981623;28;20042;-88
2022/09/13 07:03:53;;;;;;;4.13;1.05;;;;;;;14.13;100.00;100426.69;4979011;28;20054;-88
2022/09/13 07:06:22;;;;;;;3.25;1.00;;;;;;;14.30;100.00;100457.28;4979363;28;20050;-88
2022/09/13 07:08:50;;;;;;;4.18;1.10;;;;;;;14.46;100.00;100477.50;4983358;28;20055;-88
2022/09/13 07:11:20;;;;;;;2.30;0.90;;;;;;;14.59;100.00;100473.25;4977860;28;20068;-88
2022/09/13 07:13:57;;;;;;;4.53;0.95;;;;;;;14.71;100.00;100504.13;4978757;28;20049;-87
2022/09/13 07:16:26;;;;;;;1.52;0.80;;;;;;;14.71;100.00;100482.19;4979600;28;20431;-88
2022/09/13 07:19:04;;;;;;;2.45;0.82;;;;;;;14.95;100.00;100515.00;4969640;28;20054;-89
2022/09/13 07:21:33;;;;;;;3.85;0.90;;;;;;;14.60;100.00;100488.94;4980695;28;20504;-88
2022/09/13 07:24:00;;;;;;;2.63;0.90;;;;;;;14.73;100.00;100478.56;4980698;28;20054;-88
2022/09/13 07:26:27;;;;;;;2.58;0.95;;;;;;;14.79;100.00;100477.34;4996426;28;20050;-88
2022/09/13 07:28:59;;;;;;;4.85;1.10;;;;;;;15.01;100.00;100513.78;4974411;28;20050;-86
2022/09/13 07:31:32;;;;;;;1.20;0.80;;;;;;;14.53;100.00;100513.91;4976151;28;20046;-87
2022/09/13 07:34:00;;;;;;;2.85;1.00;;;;;;;14.54;100.00;100517.41;4994792;28;20046;-86
2022/09/13 07:36:29;;;;;;;4.35;0.88;;;;;;;14.81;100.00;100525.53;4994616;28;20061;-86
2022/09/13 07:38:57;;;;;;;3.95;1.30;;;;;;;14.72;100.00;100520.81;4991369;28;20050;-87
2022/09/13 07:41:26;;;;;;;2.13;1.00;;;;;;;15.09;100.00;100553.75;4973518;28;20499;-86
2022/09/13 07:43:53;;;;;;;4.25;0.90;;;;;;;15.21;100.00;100559.22;4994248;28;20416;-87
2022/09/13 07:46:25;;;;;;;5.05;1.10;;;;;;;15.33;100.00;100555.84;4968236;28;20386;-86
2022/09/13 07:48:54;;;;;;;3.77;1.13;;;;;;;15.11;100.00;100525.50;4990875;28;20145;-86
2022/09/13 07:51:26;;;;;;;3.40;1.00;;;;;;;15.07;100.00;100518.72;4974479;28;20049;-87
2022/09/13 07:53:59;;;;;;;3.65;1.10;;;;;;;15.28;100.00;100535.03;4993006;28;20109;-86
2022/09/13 07:56:31;;;;;;;2.85;0.90;;;;;;;16.24;100.00;100545.81;4989223;28;20050;-86
2022/09/13 07:58:59;;;;;;;5.65;1.15;;;;;;;16.78;100.00;100533.53;4971765;28;20053;-87
2022/09/13 08:01:29;;;;;;;5.43;1.05;;;;;;;16.87;100.00;100496.78;4987136;28;20047;-86
2022/09/13 08:03:58;;;;;;;2.50;0.90;;;;;;;17.34;100.00;100504.19;4976605;28;20456;-86
2022/09/13 08:06:26;;;;;;;4.55;1.00;;;;;;;17.89;100.00;100541.84;4993371;28;20046;-86
2022/09/13 08:08:54;;;;;;;6.68;0.95;;;;;;;17.35;100.00;100541.13;4992714;28;20081;-86
2022/09/13 08:11:27;;;;;;;3.58;0.80;;;;;;;17.20;100.00;100471.59;4983928;28;20038;-86
2022/09/13 08:13:54;;;;;;;2.45;0.90;;;;;;;17.73;100.00;100508.47;4964151;28;20109;-87
2022/09/13 08:16:23;;;;;;;5.18;1.48;;;;;;;17.91;100.00;100519.56;4986890;28;20054;-86
2022/09/13 08:18:52;;;;;;;4.25;0.98;;;;;;;17.41;100.00;100497.50;4977036;28;20100;-86
2022/09/13 08:21:19;;;;;;;2.90;0.82;;;;;;;18.36;100.00;100533.09;4974861;28;20474;-86
2022/09/13 08:23:46;;;;;;;3.22;0.90;;;;;;;18.55;100.00;100537.84;4993540;28;20050;-85
2022/09/13 08:26:13;;;;;;;3.60;0.85;;;;;;;17.98;100.00;100543.81;4975911;28;20089;-86
2022/09/13 08:28:41;;;;;;;2.75;0.80;;;;;;;18.49;100.00;100522.44;4966179;28;20381;-86
2022/09/13 08:31:16;;;;;;;3.60;0.90;;;;;;;18.73;100.00;100484.41;4990256;28;20096;-87
2022/09/13 08:33:45;;;;;;;4.13;0.70;;;;;;;18.79;99.81;100526.41;4992388;28;20137;-86
2022/09/13 08:36:13;;;;;;;2.08;0.85;;;;;;;17.70;100.00;100506.03;4975723;28;20062;-85
2022/09/13 08:38:56;;;;;;;3.53;0.90;;;;;;;17.75;100.00;100553.38;4975786;28;20047;-89
2022/09/13 08:41:44;;;;;;;4.68;0.93;;;;;;;17.53;100.00;100557.53;4977647;28;20493;-87
2022/09/13 08:44:26;;;;;;;3.17;1.00;;;;;;;17.61;100.00;100523.41;4971926;28;20054;-86
2022/09/13 08:47:02;;;;;;;4.45;1.17;;;;;;;17.54;100.00;100539.84;4995119;28;20133;-88
2022/09/13 08:49:31;;;;;;;2.47;0.80;;;;;;;18.03;100.00;100570.84;4977878;28;20054;-87
2022/09/13 08:52:04;;;;;;;7.60;1.00;;;;;;;17.67;100.00;100543.34;4981480;28;20389;-87
2022/09/13 08:54:31;;;;;;;3.38;0.90;;;;;;;17.65;100.00;100546.09;4992376;28;20104;-87
2022/09/13 08:57:25;;;;;;;1.73;0.88;;;;;;;17.23;100.00;100571.09;4978560;28;20050;-87
2022/09/13 09:00:12;;;;;;;5.88;1.20;;;;;;;17.05;100.00;100578.44;4994715;28;20050;-87
2022/09/13 09:03:18;;;;;;;5.50;1.65;;;;;;;16.82;100.00;100579.94;4999244;28;20075;-87
2022/09/13 09:05:48;;;;;;;4.63;1.00;;;;;;;16.40;100.00;100553.59;4958081;28;20062;-88
2022/09/13 09:08:21;;;;;;;5.88;1.17;;;;;;;16.58;100.00;100546.25;4974191;28;20061;-87
2022/09/13 09:10:52;;;;;;;7.38;1.27;;;;;;;16.79;100.00;100582.81;4982741;28;20050;-87
2022/09/13 09:13:53;;;;;;;3.22;1.00;;;;;;;16.29;100.00;100525.25;4981154;28;20445;-88
2022/09/13 09:16:32;;;;;;;6.13;1.30;;;;;;;16.60;100.00;100541.72;4966462;28;20054;-88
2022/09/13 09:19:11;;;;;;;4.25;1.05;;;;;;;16.97;100.00;100552.53;4979833;28;20050;-87
2022/09/13 09:21:39;;;;;;;4.97;1.65;;;;;;;16.92;100.00;100543.22;4977254;28;20046;-88
2022/09/13 09:24:15;;;;;;;4.22;1.25;;;;;;;16.80;100.00;100528.97;4978437;28;20500;-85
2022/09/13 09:26:41;;;;;;;4.93;1.20;;;;;;;17.06;100.00;100504.28;4997002;28;20054;-86
2022/09/13 09:29:21;;;;;;;3.95;1.00;;;;;;;17.50;100.00;100518.03;4974430;28;20060;-88
2022/09/13 09:32:13;;;;;;;4.97;1.20;;;;;;;18.01;100.00;100586.00;4979664;28;20129;-87
2022/09/13 09:34:47;;;;;;;5.28;1.00;;;;;;;17.71;100.00;100541.31;4996555;28;20057;-87
2022/09/13 09:37:25;;;;;;;6.10;1.17;;;;;;;17.96;99.43;100591.59;4992511;28;20100;-88
2022/09/13 09:39:54;;;;;;;5.25;1.08;;;;;;;17.45;94.75;100560.69;4987285;28;20058;-87
2022/09/13 09:42:27;;;;;;;5.90;1.00;;;;;;;17.48;97.65;100570.25;4967864;28;20047;-87
2022/09/13 09:45:03;;;;;;;1.30;0.70;;;;;;;17.97;94.02;100534.16;4994644;28;20058;-87
2022/09/13 09:47:43;;;;;;;3.47;1.00;;;;;;;18.32;89.63;100574.00;4973397;28;20272;-86
2022/09/13 09:50:17;;;;;;;3.42;1.02;;;;;;;18.31;90.63;100584.72;4996213;28;20108;-87
2022/09/13 09:53:02;;;;;;;4.85;0.85;;;;;;;18.32;89.33;100608.47;4979400;28;20048;-86
2022/09/13 09:55:33;;;;;;;3.63;1.13;;;;;;;18.19;91.40;100594.44;4979294;28;20104;-87
2022/09/13 09:58:05;;;;;;;4.63;1.20;;;;;;;17.79;92.38;100576.03;4977248;28;20058;-87
2022/09/13 10:00:49;;;;;;;3.88;0.95;;;;;;;17.98;91.79;100587.03;4986731;28;20046;-87
2022/09/13 10:03:23;;;;;;;5.07;0.98;;;;;;;18.42;89.68;100547.69;4977969;28;20043;-87
2022/09/13 10:05:50;;;;;;;3.20;0.90;;;;;;;18.09;88.93;100545.69;4967327;28;20061;-87
2022/09/13 10:08:32;;;;;;;3.38;0.90;;;;;;;18.81;90.68;100601.38;4977300;28;20058;-87
2022/09/13 10:11:00;;;;;;;6.20;1.10;;;;;;;18.91;82.78;100556.47;4976984;28;20481;-87
2022/09/13 10:13:28;;;;;;;4.82;0.98;;;;;;;18.91;85.14;100581.22;4973117;28;20055;-86
2022/09/13 10:16:22;;;;;;;8.43;1.10;;;;;;;19.44;80.85;100595.81;4970595;28;20148;-86
2022/09/13 10:18:49;;;;;;;4.78;1.00;;;;;;;19.37;80.26;100544.16;4995673;28;20089;-86
2022/09/13 10:21:18;;;;;;;5.30;1.20;;;;;;;19.42;80.67;100608.34;4969984;28;20055;-87
2022/09/13 10:23:49;;;;;;;4.60;1.13;;;;;;;19.41;78.58;100598.72;4992862;28;20547;-86
2022/09/13 10:26:25;;;;;;;5.88;1.10;;;;;;;19.62;76.01;100565.19;4978575;28;20502;-86
2022/09/13 10:29:02;;;;;;;4.05;1.30;;;;;;;19.22;77.42;100602.75;4977002;28;20485;-86
2022/09/13 10:31:33;;;;;;;3.22;0.90;;;;;;;19.08;78.23;100603.81;4995164;28;20050;-87
2022/09/13 10:34:03;;;;;;;6.28;1.05;;;;;;;18.75;79.84;100567.34;4978782;28;20444;-86
2022/09/13 10:36:33;;;;;;;7.22;1.00;;;;;;;18.54;80.01;100565.34;4978324;28;20061;-86
2022/09/13 10:39:20;;;;;;;3.55;1.00;;;;;;;18.84;78.35;100579.97;4980043;28;20539;-86
2022/09/13 10:42:00;;;;;;;5.20;1.23;;;;;;;19.00;76.68;100584.13;4977764;28;20819;-86
2022/09/13 10:44:39;;;;;;;2.45;0.85;;;;;;;19.60;75.70;100604.28;4975376;28;20786;-86
2022/09/13 10:47:12;;;;;;;4.97;1.30;;;;;;;19.19;73.65;100576.44;4973943;28;20125;-86
2022/09/13 10:49:47;;;;;;;6.30;1.35;;;;;;;19.49;72.70;100567.91;4983073;28;20046;-86
2022/09/13 10:52:31;;;;;;;3.45;1.00;;;;;;;19.47;72.55;100596.41;4985506;28;20061;-86
2022/09/13 10:55:17;;;;;;;6.70;1.27;;;;;;;19.12;78.72;100599.09;4995488;28;20401;-86
2022/09/13 10:57:48;;;;;;;3.47;0.90;;;;;;;19.09;76.79;100602.84;4994941;28;20042;-87
2022/09/13 11:00:25;;;;;;;2.70;0.90;;;;;;;19.30;72.62;100575.63;4977211;28;20259;-86
2022/09/13 11:03:28;;;;;;;6.00;1.13;;;;;;;18.83;75.67;100543.78;4970540;28;20444;-85
2022/09/13 11:06:36;;;;;;;5.93;1.07;;;;;;;18.66;73.74;100571.56;4977716;28;20058;-86
2022/09/13 11:09:28;;;;;;;5.93;1.10;;;;;;;18.26;78.11;100552.44;4969920;28;20054;-87
2022/09/13 11:12:36;;;;;;;5.07;0.93;;;;;;;19.00;75.92;100595.59;4978772;28;20051;-86
2022/09/13 11:15:18;;;;;;;8.55;1.35;;;;;;;19.32;75.66;100597.59;4944842;28;20058;-86
2022/09/13 11:18:20;;;;;;;3.45;1.00;;;;;;;19.38;73.40;100601.59;4967259;28;20050;-89
2022/09/13 11:21:32;;;;;;;2.47;0.93;;;;;;;19.76;71.80;100592.47;4978045;28;20079;-87
2022/09/13 11:24:19;;;;;;;5.22;0.98;;;;;;;20.17;71.01;100557.31;4897794;29;20061;-87
2022/09/13 11:26:58;;;;;;;4.25;0.93;;;;;;;19.85;71.17;100525.38;4896137;29;20059;-86
2022/09/13 11:29:37;;;;;;;2.83;1.05;;;;;;;19.81;71.23;100569.91;4946932;28;20528;-86
2022/09/13 11:32:31;;;;;;;2.67;0.95;;;;;;;19.56;70.95;100567.47;4989252;28;20496;-87
2022/09/13 11:35:55;;;;;;;3.63;0.90;;;;;;;19.45;72.54;100561.16;4978388;28;20892;-86
2022/09/13 11:38:48;;;;;;;5.47;1.17;;;;;;;19.30;70.77;100547.28;4899280;29;20044;-85
2022/09/13 11:41:57;;;;;;;3.47;1.00;;;;;;;19.51;71.85;100560.72;4899321;29;20060;-87
2022/09/13 11:44:58;;;;;;;4.82;0.98;;;;;;;19.58;71.28;100557.56;4963692;28;20300;-88
2022/09/13 11:47:54;;;;;;;5.30;1.20;;;;;;;19.37;70.49;100552.97;4964876;28;20455;-87
2022/09/13 11:50:30;;;;;;;4.47;1.10;;;;;;;19.58;70.39;100560.22;4971812;28;20100;-87
2022/09/13 11:53:16;;;;;;;5.93;1.10;;;;;;;19.56;71.87;100554.19;4972196;28;20101;-87
2022/09/13 11:55:53;;;;;;;6.95;0.95;;;;;;;19.66;70.36;100532.09;4990471;28;21469;-87